createdAt,value
2023-05-10T06:42:24.083Z,67.18
2023-05-10T06:45:10.252Z,67.18
2023-05-10T06:47:55.910Z,69.43
2023-05-10T06:50:41.511Z,67.74
2023-05-10T06:53:26.925Z,67.28
2023-05-10T06:56:12.129Z,66.60
2023-05-10T06:58:57.585Z,66.03
2023-05-10T07:01:43.531Z,65.87
2023-05-10T07:04:28.878Z,65.09
2023-05-10T07:07:15.023Z,65.08
2023-05-10T07:10:00.650Z,63.50
2023-05-10T07:12:46.074Z,63.18
2023-05-10T07:15:31.616Z,62.38
2023-05-10T07:18:17.020Z,61.30
2023-05-10T07:21:02.851Z,60.75
2023-05-10T07:23:48.396Z,60.49
2023-05-10T07:26:33.791Z,61.11
2023-05-10T07:29:19.213Z,60.20
2023-05-10T07:32:04.732Z,60.69
2023-05-10T07:34:50.028Z,59.96
2023-05-10T07:37:36.056Z,59.82
2023-05-10T07:40:21.584Z,58.52
2023-05-10T07:43:07.467Z,56.64
2023-05-10T07:45:55.398Z,56.36
2023-05-10T07:48:41.522Z,56.09
2023-05-10T07:51:27.277Z,55.57
2023-05-10T07:54:12.355Z,55.64
2023-05-10T07:56:57.633Z,55.33
2023-05-10T07:59:43.219Z,55.96
2023-05-10T08:02:28.231Z,55.34
2023-05-10T08:05:13.845Z,54.90
2023-05-10T08:08:00.561Z,54.60
2023-05-10T08:10:46.008Z,52.67
2023-05-10T08:13:32.504Z,54.11
2023-05-10T08:16:18.335Z,54.83
2023-05-10T08:19:03.861Z,54.00
2023-05-10T08:21:49.116Z,52.65
2023-05-10T08:24:39.127Z,52.00
2023-05-10T08:27:24.321Z,49.43
2023-05-10T08:30:10.199Z,48.87
2023-05-10T08:32:55.590Z,41.66
2023-05-10T08:35:41.027Z,38.31
2023-05-10T08:38:27.207Z,33.55
2023-05-10T08:41:12.292Z,37.89
2023-05-10T08:43:57.551Z,40.23
2023-05-10T08:46:47.371Z,40.30
2023-05-10T08:49:34.018Z,36.54
2023-05-10T08:52:19.541Z,37.71
2023-05-10T08:55:05.591Z,36.14
2023-05-10T08:57:50.753Z,40.40
2023-05-10T09:00:38.063Z,36.14
2023-05-10T09:03:23.774Z,34.10
2023-05-10T09:06:09.414Z,34.90
2023-05-10T09:08:55.051Z,38.41
2023-05-10T09:11:40.497Z,41.97
2023-05-10T09:14:26.487Z,42.65
2023-05-10T09:17:11.831Z,37.78
2023-05-10T09:20:01.246Z,34.62
2023-05-10T09:22:46.663Z,41.18
2023-05-10T09:25:34.308Z,39.48
2023-05-10T09:28:19.984Z,40.58
2023-05-10T09:31:05.182Z,45.80
2023-05-10T09:33:51.028Z,37.21
2023-05-10T09:36:36.641Z,36.43
2023-05-10T09:39:22.192Z,33.96
2023-05-10T09:42:09.756Z,29.11
2023-05-10T09:44:55.067Z,30.12
2023-05-10T09:47:40.386Z,29.07
2023-05-10T09:50:28.104Z,31.63
2023-05-10T09:53:16.599Z,38.17
2023-05-10T09:56:02.096Z,32.56
2023-05-10T09:58:47.474Z,35.53
2023-05-10T10:01:33.042Z,38.54
2023-05-10T10:04:18.672Z,31.34
2023-05-10T10:07:06.128Z,25.64
2023-05-10T10:09:51.451Z,25.29
2023-05-10T10:12:36.867Z,25.03
2023-05-10T10:15:23.519Z,26.30
2023-05-10T10:18:09.429Z,28.27
2023-05-10T10:20:55.853Z,26.97
2023-05-10T10:23:40.915Z,31.44
2023-05-10T10:26:26.897Z,30.84
2023-05-10T10:29:32.520Z,33.34
2023-05-10T10:32:50.359Z,35.01
2023-05-10T10:35:36.279Z,36.51
2023-05-10T10:38:22.175Z,32.89
2023-05-10T10:41:12.748Z,28.79
2023-05-10T10:44:23.423Z,30.04
2023-05-10T10:47:25.716Z,35.29
2023-05-10T10:50:15.870Z,29.44
2023-05-10T10:53:11.993Z,28.42
2023-05-10T10:56:08.341Z,28.98
2023-05-10T10:58:54.943Z,27.02
2023-05-10T11:01:45.205Z,27.22
2023-05-10T11:04:43.727Z,26.14
2023-05-10T11:07:29.058Z,27.09
2023-05-10T11:10:21.268Z,28.40
2023-05-10T11:13:11.198Z,32.19
2023-05-10T11:16:00.299Z,31.60
2023-05-10T11:18:57.755Z,27.70
2023-05-10T11:21:48.881Z,25.52
2023-05-10T11:24:34.850Z,32.85
2023-05-10T11:27:21.238Z,33.07
2023-05-10T11:30:08.040Z,36.86
2023-05-10T11:32:55.877Z,32.03
2023-05-10T11:35:43.577Z,30.65
2023-05-10T11:38:30.070Z,31.43
2023-05-10T11:41:16.744Z,33.14
2023-05-10T11:44:02.990Z,35.93
2023-05-10T11:46:48.186Z,32.52
2023-05-10T11:49:33.875Z,35.59
2023-05-10T11:52:20.044Z,37.58
2023-05-10T11:55:08.370Z,32.76
2023-05-10T11:58:01.614Z,27.11
2023-05-10T12:00:47.597Z,27.72
2023-05-10T12:03:33.309Z,31.13
2023-05-10T12:06:20.240Z,32.33
2023-05-10T12:09:07.445Z,28.90
2023-05-10T12:11:57.389Z,28.65
2023-05-10T12:14:42.582Z,26.47
2023-05-10T12:17:31.247Z,30.90
2023-05-10T12:20:25.092Z,34.25
2023-05-10T12:23:11.162Z,33.01
2023-05-10T12:26:03.462Z,31.34
2023-05-10T12:28:50.175Z,30.70
2023-05-10T12:31:51.246Z,35.46
2023-05-10T12:34:37.428Z,33.16
2023-05-10T12:37:25.741Z,33.40
2023-05-10T12:40:12.503Z,32.30
